createdAt,value
2018-09-26T00:02:28.510Z,9.00
2018-09-26T00:04:56.566Z,9.00
2018-09-26T00:07:23.830Z,8.90
2018-09-26T00:09:51.094Z,8.80
2018-09-26T00:12:18.361Z,8.90
2018-09-26T00:14:45.678Z,8.80
2018-09-26T00:17:13.181Z,8.80
2018-09-26T00:19:40.471Z,8.80
2018-09-26T00:22:07.770Z,8.70
2018-09-26T00:24:35.063Z,8.70
2018-09-26T00:27:02.350Z,8.70
2018-09-26T00:29:29.662Z,8.70
2018-09-26T00:31:56.954Z,8.60
2018-09-26T00:34:24.288Z,8.60
2018-09-26T00:36:51.650Z,8.60
2018-09-26T00:39:18.914Z,8.50
2018-09-26T00:41:46.194Z,8.50
2018-09-26T00:44:13.466Z,8.40
2018-09-26T00:46:40.775Z,8.50
2018-09-26T00:49:08.054Z,8.50
2018-09-26T00:51:35.359Z,8.50
2018-09-26T00:54:02.813Z,8.50
2018-09-26T00:56:30.244Z,8.50
2018-09-26T00:58:57.582Z,8.60
2018-09-26T01:01:24.849Z,8.70
2018-09-26T01:03:52.400Z,8.70
2018-09-26T01:06:19.673Z,8.70
2018-09-26T01:08:47.201Z,8.70
2018-09-26T01:11:14.791Z,8.70
2018-09-26T01:13:42.086Z,8.60
2018-09-26T01:16:09.486Z,8.70
2018-09-26T01:18:37.470Z,8.70
2018-09-26T01:21:05.035Z,8.70
2018-09-26T01:23:32.302Z,8.80
2018-09-26T01:25:59.578Z,8.80
2018-09-26T01:28:26.946Z,8.80
2018-09-26T01:30:55.030Z,8.80
2018-09-26T01:33:22.328Z,8.80
2018-09-26T01:35:52.922Z,8.90
2018-09-26T01:38:20.402Z,8.90
2018-09-26T01:40:47.800Z,9.00
2018-09-26T01:43:15.098Z,9.00
2018-09-26T01:45:42.376Z,9.00
2018-09-26T01:48:09.651Z,9.00
2018-09-26T01:50:36.970Z,8.90
2018-09-26T01:53:04.402Z,8.90
2018-09-26T01:55:31.771Z,8.80
2018-09-26T01:57:59.030Z,8.80
2018-09-26T02:00:26.289Z,8.90
2018-09-26T02:02:53.542Z,8.90
2018-09-26T02:05:20.813Z,8.90
2018-09-26T02:07:48.073Z,8.90
2018-09-26T02:10:15.391Z,8.90
2018-09-26T02:12:42.693Z,8.90
2018-09-26T02:15:09.988Z,8.90
2018-09-26T02:17:37.309Z,8.90
2018-09-26T02:20:04.906Z,9.00
2018-09-26T02:22:32.270Z,8.90
2018-09-26T02:24:59.501Z,9.00
2018-09-26T02:27:26.805Z,9.00
2018-09-26T02:29:54.193Z,8.90
2018-09-26T02:32:21.470Z,8.90
2018-09-26T02:34:48.730Z,8.80
2018-09-26T02:37:15.996Z,8.80
2018-09-26T02:39:43.535Z,8.70
2018-09-26T02:42:11.019Z,8.70
2018-09-26T02:44:38.547Z,8.60
2018-09-26T02:47:06.139Z,8.60
2018-09-26T02:49:33.606Z,8.50
2018-09-26T02:52:01.221Z,8.50
2018-09-26T02:54:28.719Z,8.40
2018-09-26T02:56:56.193Z,8.30
2018-09-26T02:59:23.686Z,8.30
2018-09-26T03:01:51.205Z,8.20
2018-09-26T03:04:18.790Z,8.20
2018-09-26T03:06:46.277Z,8.10
2018-09-26T03:09:13.758Z,8.10
2018-09-26T03:11:41.243Z,8.00
2018-09-26T03:14:08.776Z,8.00
2018-09-26T03:16:36.251Z,8.00
2018-09-26T03:19:03.772Z,8.00
2018-09-26T03:21:31.262Z,8.00
2018-09-26T03:23:58.778Z,8.00
2018-09-26T03:26:26.390Z,8.00
2018-09-26T03:28:53.963Z,8.00
2018-09-26T03:31:21.544Z,8.00
2018-09-26T03:33:49.128Z,8.00
2018-09-26T03:36:16.757Z,8.00
2018-09-26T03:38:44.299Z,8.00
2018-09-26T03:41:11.772Z,8.00
2018-09-26T03:43:39.487Z,8.00
2018-09-26T03:46:07.137Z,8.00
2018-09-26T03:48:34.626Z,8.00
2018-09-26T03:51:02.171Z,8.00
2018-09-26T03:53:29.654Z,7.90
2018-09-26T03:55:57.188Z,7.90
2018-09-26T03:58:24.670Z,7.90
2018-09-26T04:00:52.219Z,7.90
2018-09-26T04:03:19.719Z,7.90
2018-09-26T04:05:47.349Z,7.90
2018-09-26T04:08:14.983Z,7.90
2018-09-26T04:10:42.670Z,8.00
2018-09-26T04:13:10.262Z,8.00
2018-09-26T04:15:55.498Z,8.10
2018-09-26T04:18:24.018Z,8.10
2018-09-26T04:20:51.742Z,8.10
2018-09-26T04:23:19.043Z,8.10
2018-09-26T04:25:46.576Z,8.10
2018-09-26T04:28:14.107Z,8.10
2018-09-26T04:30:41.660Z,8.10
2018-09-26T04:33:09.873Z,8.10
2018-09-26T04:35:37.167Z,8.00
2018-09-26T04:38:04.890Z,8.00
2018-09-26T04:40:32.369Z,7.90
2018-09-26T04:42:59.866Z,7.90
2018-09-26T04:45:27.950Z,7.90
2018-09-26T04:47:55.428Z,7.90
2018-09-26T04:50:22.930Z,7.80
2018-09-26T04:52:50.442Z,7.80
2018-09-26T04:55:18.077Z,7.80
2018-09-26T04:57:45.846Z,7.90
2018-09-26T05:00:13.394Z,8.00
2018-09-26T05:02:41.290Z,8.10
2018-09-26T05:05:08.756Z,8.30
2018-09-26T05:07:36.241Z,8.50
2018-09-26T05:10:04.073Z,8.80
2018-09-26T05:12:31.743Z,8.90
2018-09-26T05:14:59.189Z,9.00
2018-09-26T05:17:26.650Z,9.00
2018-09-26T05:19:54.241Z,9.20
2018-09-26T05:22:21.774Z,9.30
2018-09-26T05:24:49.433Z,9.40
2018-09-26T05:27:17.121Z,9.40
2018-09-26T05:29:44.574Z,9.40
2018-09-26T05:32:12.269Z,9.50
2018-09-26T05:34:39.762Z,9.70
2018-09-26T05:37:07.274Z,9.60
2018-09-26T05:39:34.782Z,9.80
2018-09-26T05:42:02.482Z,10.00
2018-09-26T05:44:30.029Z,10.00
2018-09-26T05:46:57.539Z,10.00
2018-09-26T05:49:25.136Z,10.10
2018-09-26T05:51:52.681Z,10.20
2018-09-26T05:54:20.234Z,10.20
2018-09-26T05:56:48.942Z,10.40
2018-09-26T05:59:16.623Z,10.30
2018-09-26T06:01:44.115Z,10.30
2018-09-26T06:04:11.596Z,10.40
2018-09-26T06:06:39.061Z,10.50
2018-09-26T06:09:08.817Z,10.50
2018-09-26T06:11:36.418Z,10.70
2018-09-26T06:14:03.930Z,10.70
2018-09-26T06:16:31.484Z,10.70
2018-09-26T06:18:59.097Z,10.70
2018-09-26T06:21:26.510Z,10.80
2018-09-26T06:23:54.048Z,10.90
2018-09-26T06:26:21.563Z,11.00
2018-09-26T06:28:49.066Z,11.00
2018-09-26T06:31:16.601Z,11.00
2018-09-26T06:33:44.065Z,11.10
2018-09-26T06:36:11.526Z,11.40
2018-09-26T06:38:38.974Z,11.50
2018-09-26T06:41:06.454Z,11.40
2018-09-26T06:43:33.913Z,11.40
2018-09-26T06:46:01.365Z,11.30
2018-09-26T06:48:28.933Z,11.30
2018-09-26T06:50:56.385Z,11.30
2018-09-26T06:53:23.854Z,11.40
2018-09-26T06:55:51.422Z,11.60
2018-09-26T06:58:20.622Z,11.80
2018-09-26T07:00:48.074Z,11.70
2018-09-26T07:03:15.553Z,11.80
2018-09-26T07:05:43.048Z,12.00
2018-09-26T07:08:10.541Z,12.00
2018-09-26T07:10:41.885Z,12.10
2018-09-26T07:13:09.366Z,12.10
2018-09-26T07:15:36.929Z,12.00
2018-09-26T07:18:04.415Z,12.00
2018-09-26T07:20:31.964Z,12.00
2018-09-26T07:22:59.425Z,12.00
2018-09-26T07:25:28.000Z,12.10
2018-09-26T07:27:55.477Z,12.30
2018-09-26T07:30:22.932Z,12.40
2018-09-26T07:32:50.465Z,12.60
2018-09-26T07:35:17.929Z,12.60
2018-09-26T07:37:50.165Z,12.40
2018-09-26T07:40:17.632Z,12.40
2018-09-26T07:42:45.122Z,12.30
2018-09-26T07:45:12.967Z,12.30
2018-09-26T07:47:40.464Z,12.30
2018-09-26T07:50:12.481Z,12.40
2018-09-26T07:52:40.054Z,12.60
2018-09-26T07:55:07.546Z,12.70
2018-09-26T07:57:35.427Z,12.90
2018-09-26T08:00:03.202Z,13.30
2018-09-26T08:02:30.634Z,13.40
2018-09-26T08:05:00.517Z,13.60
2018-09-26T08:07:28.009Z,13.90
2018-09-26T08:09:55.500Z,14.30
2018-09-26T08:12:22.989Z,14.40
2018-09-26T08:14:50.449Z,14.40
2018-09-26T08:17:17.921Z,14.60
2018-09-26T08:19:48.675Z,14.70
2018-09-26T08:22:16.221Z,14.70
2018-09-26T08:24:43.790Z,14.70
2018-09-26T08:27:11.297Z,14.70
2018-09-26T08:29:39.398Z,14.80
2018-09-26T08:32:11.285Z,15.00
2018-09-26T08:34:38.853Z,15.00
2018-09-26T08:37:06.338Z,15.10
2018-09-26T08:39:33.917Z,15.30
2018-09-26T08:42:01.419Z,14.90
2018-09-26T08:44:28.922Z,14.90
2018-09-26T08:47:00.360Z,15.00
2018-09-26T08:49:27.857Z,14.90
2018-09-26T08:51:55.353Z,15.10
2018-09-26T08:54:22.829Z,15.20
2018-09-26T08:56:50.329Z,15.50
2018-09-26T08:59:17.805Z,15.60
2018-09-26T09:01:50.053Z,15.70
2018-09-26T09:04:18.638Z,15.90
2018-09-26T09:06:46.473Z,15.90
2018-09-26T09:09:14.070Z,15.80
2018-09-26T09:11:41.655Z,15.80
2018-09-26T09:14:09.235Z,16.00
2018-09-26T09:16:37.919Z,15.60
2018-09-26T09:19:08.656Z,15.60
2018-09-26T09:21:36.211Z,15.80
2018-09-26T09:24:03.709Z,15.70
2018-09-26T09:26:31.190Z,15.80
2018-09-26T09:29:03.653Z,16.10
2018-09-26T09:31:31.114Z,16.30
2018-09-26T09:33:58.603Z,16.10
2018-09-26T09:36:26.118Z,16.40
2018-09-26T09:38:53.702Z,16.50
2018-09-26T09:41:21.177Z,16.90
2018-09-26T09:43:51.821Z,17.00
2018-09-26T09:46:19.229Z,17.40
2018-09-26T09:48:46.989Z,17.60
2018-09-26T09:51:14.510Z,17.80
2018-09-26T09:53:42.063Z,18.20
2018-09-26T09:56:14.381Z,18.40
2018-09-26T09:58:41.817Z,18.60
2018-09-26T10:01:14.944Z,18.40
2018-09-26T10:03:42.429Z,18.20
2018-09-26T10:06:09.881Z,18.00
2018-09-26T10:08:40.849Z,18.00
2018-09-26T10:11:08.303Z,17.60
2018-09-26T10:13:35.895Z,17.80
2018-09-26T10:16:03.394Z,17.60
2018-09-26T10:18:30.969Z,17.80
2018-09-26T10:20:58.486Z,17.80
2018-09-26T10:23:30.291Z,17.90
2018-09-26T10:25:57.841Z,17.80
2018-09-26T10:28:25.330Z,17.90
2018-09-26T10:30:52.823Z,17.50
2018-09-26T10:33:20.318Z,17.40
2018-09-26T10:35:47.810Z,17.20
2018-09-26T10:38:21.819Z,17.40
2018-09-26T10:40:49.276Z,17.10
2018-09-26T10:43:16.888Z,16.80
2018-09-26T10:45:44.362Z,16.80
2018-09-26T10:48:11.861Z,16.90
2018-09-26T10:50:42.789Z,17.30
2018-09-26T10:53:10.295Z,17.20
2018-09-26T10:55:37.901Z,17.30
2018-09-26T10:58:05.405Z,17.40
2018-09-26T11:00:32.997Z,17.50
2018-09-26T11:03:00.487Z,17.40
2018-09-26T11:05:27.998Z,17.50
2018-09-26T11:07:59.686Z,17.80
2018-09-26T11:10:27.372Z,17.80
2018-09-26T11:12:55.670Z,18.10
2018-09-26T11:15:23.308Z,18.40
2018-09-26T11:17:50.742Z,18.80
2018-09-26T11:20:20.553Z,19.10
2018-09-26T11:22:48.022Z,19.20
2018-09-26T11:25:15.536Z,19.40
2018-09-26T11:27:43.011Z,19.70
2018-09-26T11:30:10.574Z,19.80
2018-09-26T11:32:38.290Z,20.00
2018-09-26T11:35:06.950Z,20.20
2018-09-26T11:37:34.438Z,20.10
2018-09-26T11:40:01.919Z,19.80
2018-09-26T11:42:29.647Z,19.90
2018-09-26T11:44:57.314Z,19.80
2018-09-26T11:47:28.687Z,19.90
2018-09-26T11:49:56.316Z,19.80
2018-09-26T11:52:23.889Z,19.70
2018-09-26T11:54:51.339Z,19.40
2018-09-26T11:57:18.831Z,19.60
2018-09-26T11:59:46.335Z,19.50
2018-09-26T12:02:13.901Z,19.80
2018-09-26T12:04:41.334Z,19.90
2018-09-26T12:07:08.871Z,19.80
2018-09-26T12:09:36.348Z,19.80
2018-09-26T12:12:03.952Z,19.90
2018-09-26T12:14:31.368Z,20.20
2018-09-26T12:17:04.739Z,20.30
2018-09-26T12:19:32.222Z,20.70
2018-09-26T12:21:59.750Z,21.00
2018-09-26T12:24:27.246Z,20.90
2018-09-26T12:26:55.584Z,21.10
2018-09-26T12:29:24.558Z,20.90
2018-09-26T12:31:52.030Z,21.30
2018-09-26T12:34:19.580Z,21.50
2018-09-26T12:36:47.133Z,21.50
2018-09-26T12:39:14.590Z,21.70
2018-09-26T12:41:43.318Z,21.80
2018-09-26T12:44:12.618Z,21.80
2018-09-26T12:46:40.109Z,21.50
2018-09-26T12:49:07.573Z,21.50
2018-09-26T12:51:35.042Z,21.50
2018-09-26T12:54:02.693Z,21.50
2018-09-26T12:56:33.071Z,21.20
2018-09-26T12:59:00.591Z,21.30
2018-09-26T13:01:28.067Z,21.30
2018-09-26T13:03:55.534Z,21.40
2018-09-26T13:06:23.104Z,21.60
2018-09-26T13:08:50.523Z,21.70
2018-09-26T13:11:21.398Z,21.80
2018-09-26T13:13:48.888Z,21.70
2018-09-26T13:16:16.380Z,21.70
2018-09-26T13:18:43.840Z,21.90
2018-09-26T13:21:11.476Z,21.90
2018-09-26T13:23:42.009Z,22.00
2018-09-26T13:26:10.823Z,22.30
2018-09-26T13:28:38.391Z,22.20
2018-09-26T13:31:06.009Z,22.00
2018-09-26T13:33:33.401Z,21.60
2018-09-26T13:36:00.897Z,21.40
2018-09-26T13:38:30.730Z,21.60
2018-09-26T13:40:58.187Z,21.70
2018-09-26T13:43:25.878Z,21.80
2018-09-26T13:45:53.458Z,22.00
2018-09-26T13:48:20.974Z,22.30
2018-09-26T13:50:48.425Z,22.10
2018-09-26T13:53:17.395Z,22.10
2018-09-26T13:55:44.886Z,22.00
2018-09-26T13:58:12.468Z,22.00
2018-09-26T14:00:39.921Z,21.70
2018-09-26T14:03:07.426Z,21.80
2018-09-26T14:05:34.890Z,21.70
2018-09-26T14:08:06.182Z,21.60
2018-09-26T14:10:33.809Z,21.60
2018-09-26T14:13:01.269Z,21.20
2018-09-26T14:15:28.770Z,21.10
2018-09-26T14:17:56.263Z,21.00
2018-09-26T14:20:41.246Z,21.10
2018-09-26T14:23:14.928Z,21.30
2018-09-26T14:25:47.161Z,21.20
2018-09-26T14:28:14.791Z,21.20
2018-09-26T14:30:42.676Z,21.00
2018-09-26T14:33:10.317Z,20.90
2018-09-26T14:35:37.920Z,21.00
2018-09-26T14:38:05.617Z,20.90
2018-09-26T14:40:38.244Z,20.80
2018-09-26T14:43:09.422Z,20.60
2018-09-26T14:45:37.075Z,20.30
2018-09-26T14:48:04.662Z,20.10
2018-09-26T14:50:32.249Z,20.20
2018-09-26T14:52:59.902Z,20.30
2018-09-26T14:55:27.502Z,20.20
2018-09-26T14:57:59.520Z,20.10
2018-09-26T15:00:27.151Z,19.80
2018-09-26T15:02:54.813Z,19.70
2018-09-26T15:05:22.442Z,19.50
2018-09-26T15:07:50.201Z,19.30
2018-09-26T15:10:18.228Z,19.40
2018-09-26T15:12:45.898Z,19.40
2018-09-26T15:15:13.541Z,19.20
2018-09-26T15:17:41.222Z,19.10
2018-09-26T15:20:08.908Z,18.90
2018-09-26T15:22:36.511Z,19.00
2018-09-26T15:25:04.251Z,18.80
2018-09-26T15:27:32.006Z,18.80
2018-09-26T15:29:59.632Z,18.80
2018-09-26T15:32:29.655Z,18.80
2018-09-26T15:34:57.358Z,18.80
2018-09-26T15:37:25.060Z,19.00
2018-09-26T15:39:52.721Z,18.90
2018-09-26T15:42:20.526Z,18.90
2018-09-26T15:44:48.124Z,19.10
2018-09-26T15:47:15.815Z,19.20
2018-09-26T15:49:43.523Z,19.30
2018-09-26T15:52:11.165Z,19.40
2018-09-26T15:54:38.873Z,19.40
2018-09-26T15:57:06.747Z,19.30
2018-09-26T15:59:34.406Z,19.20
2018-09-26T16:02:02.183Z,19.30
2018-09-26T16:04:29.714Z,19.30
2018-09-26T16:06:57.249Z,19.30
2018-09-26T16:09:24.744Z,19.10
2018-09-26T16:11:52.310Z,19.10
2018-09-26T16:14:19.901Z,18.90
2018-09-26T16:16:47.382Z,19.00
2018-09-26T16:19:15.012Z,18.80
2018-09-26T16:21:42.489Z,18.60
2018-09-26T16:24:10.136Z,18.80
2018-09-26T16:26:37.684Z,18.50
2018-09-26T16:29:06.822Z,18.60
2018-09-26T16:31:34.490Z,18.40
2018-09-26T16:34:02.065Z,18.40
2018-09-26T16:36:29.570Z,18.30
2018-09-26T16:38:57.110Z,18.40
2018-09-26T16:41:24.586Z,18.40
2018-09-26T16:43:52.090Z,18.40
2018-09-26T16:46:19.600Z,18.40
2018-09-26T16:48:47.090Z,18.40
2018-09-26T16:51:14.556Z,18.40
2018-09-26T16:53:45.845Z,18.20
2018-09-26T16:56:13.289Z,18.20
2018-09-26T16:58:40.727Z,18.20
2018-09-26T17:01:08.211Z,18.00
2018-09-26T17:03:35.691Z,18.10
2018-09-26T17:06:03.353Z,18.10
2018-09-26T17:08:30.886Z,18.00
2018-09-26T17:11:01.880Z,17.70
2018-09-26T17:13:29.348Z,17.70
2018-09-26T17:15:56.939Z,17.70
2018-09-26T17:18:24.469Z,17.70
2018-09-26T17:20:51.928Z,17.70
2018-09-26T17:23:20.581Z,17.80
2018-09-26T17:25:50.246Z,17.80
2018-09-26T17:28:17.942Z,17.70
2018-09-26T17:30:45.456Z,17.60
2018-09-26T17:33:12.927Z,17.60
2018-09-26T17:35:40.682Z,17.70
2018-09-26T17:38:11.350Z,17.60
2018-09-26T17:40:38.857Z,17.50
2018-09-26T17:43:06.498Z,17.30
2018-09-26T17:45:33.974Z,17.30
2018-09-26T17:48:01.433Z,17.40
2018-09-26T17:50:30.491Z,17.40
2018-09-26T17:53:01.467Z,17.30
2018-09-26T17:55:28.934Z,17.30
2018-09-26T17:57:56.749Z,17.30
2018-09-26T18:00:24.200Z,17.20
2018-09-26T18:02:51.402Z,17.20
2018-09-26T18:05:21.274Z,17.10
2018-09-26T18:07:48.566Z,17.00
2018-09-26T18:10:15.826Z,17.00
2018-09-26T18:12:43.104Z,16.90
2018-09-26T18:15:10.372Z,16.90
2018-09-26T18:17:37.746Z,16.80
2018-09-26T18:20:08.410Z,16.70
2018-09-26T18:22:35.687Z,16.60
2018-09-26T18:25:03.050Z,16.50
2018-09-26T18:27:30.400Z,16.40
2018-09-26T18:29:57.869Z,16.30
2018-09-26T18:32:25.229Z,16.30
2018-09-26T18:34:54.301Z,16.10
2018-09-26T18:37:21.603Z,16.00
2018-09-26T18:39:48.870Z,16.00
2018-09-26T18:42:16.281Z,15.90
2018-09-26T18:44:43.561Z,15.80
2018-09-26T18:47:10.868Z,15.70
2018-09-26T18:49:38.226Z,15.60
2018-09-26T18:52:07.785Z,15.50
2018-09-26T18:54:35.135Z,15.40
2018-09-26T18:57:02.478Z,15.30
2018-09-26T18:59:29.842Z,15.20
2018-09-26T19:01:57.110Z,15.20
2018-09-26T19:04:24.387Z,15.10
2018-09-26T19:06:54.845Z,15.00
2018-09-26T19:09:22.156Z,14.90
2018-09-26T19:11:49.423Z,14.80
2018-09-26T19:14:16.930Z,14.70
2018-09-26T19:16:44.254Z,14.70
2018-09-26T19:19:11.570Z,14.60
2018-09-26T19:21:40.730Z,14.50
2018-09-26T19:24:08.018Z,14.70
2018-09-26T19:26:35.306Z,14.80
2018-09-26T19:29:02.597Z,14.90
2018-09-26T19:31:29.860Z,15.10
2018-09-26T19:33:57.206Z,15.10
2018-09-26T19:36:24.551Z,15.20
2018-09-26T19:38:53.864Z,15.20
2018-09-26T19:41:21.153Z,15.10
2018-09-26T19:43:48.470Z,15.10
2018-09-26T19:46:15.733Z,15.00
2018-09-26T19:48:42.996Z,15.00
2018-09-26T19:51:11.177Z,14.90
2018-09-26T19:53:41.925Z,15.00
2018-09-26T19:56:09.356Z,14.90
2018-09-26T19:58:36.580Z,14.90
2018-09-26T20:01:03.873Z,14.80
2018-09-26T20:03:31.167Z,14.80
2018-09-26T20:05:58.478Z,14.90
2018-09-26T20:08:31.846Z,14.80
2018-09-26T20:10:59.126Z,14.70
2018-09-26T20:13:26.480Z,14.70
2018-09-26T20:15:53.757Z,14.70
2018-09-26T20:18:21.055Z,14.60
2018-09-26T20:20:48.353Z,14.70
2018-09-26T20:23:18.792Z,14.70
2018-09-26T20:25:46.158Z,14.80
2018-09-26T20:28:13.432Z,14.70
2018-09-26T20:30:40.758Z,14.70
2018-09-26T20:33:08.044Z,14.70
2018-09-26T20:35:35.473Z,14.70
2018-09-26T20:38:05.727Z,14.60
2018-09-26T20:40:33.215Z,14.70
2018-09-26T20:43:00.678Z,14.80
2018-09-26T20:45:28.309Z,14.90
2018-09-26T20:47:56.232Z,15.00
2018-09-26T20:50:28.668Z,15.00
2018-09-26T20:52:56.199Z,14.90
2018-09-26T20:55:23.694Z,15.00
2018-09-26T20:57:51.166Z,15.00
2018-09-26T21:00:18.725Z,15.00
2018-09-26T21:02:46.229Z,15.00
2018-09-26T21:05:13.716Z,14.90
2018-09-26T21:07:41.226Z,15.10
2018-09-26T21:10:09.535Z,14.90
2018-09-26T21:12:37.126Z,15.00
2018-09-26T21:15:04.770Z,14.80
2018-09-26T21:17:32.410Z,14.80
2018-09-26T21:19:59.914Z,14.70
2018-09-26T21:22:27.474Z,14.70
2018-09-26T21:24:54.962Z,14.60
2018-09-26T21:27:22.509Z,14.60
2018-09-26T21:29:49.994Z,14.60
2018-09-26T21:32:17.518Z,14.60
2018-09-26T21:34:45.175Z,14.50
2018-09-26T21:37:12.736Z,14.40
2018-09-26T21:39:40.266Z,14.40
2018-09-26T21:42:07.858Z,14.40
2018-09-26T21:44:35.400Z,14.30
2018-09-26T21:47:02.986Z,14.30
2018-09-26T21:49:30.535Z,14.40
2018-09-26T21:51:58.054Z,14.30
2018-09-26T21:54:25.630Z,14.40
2018-09-26T21:56:53.172Z,14.40
2018-09-26T21:59:20.740Z,14.50
2018-09-26T22:01:48.298Z,14.50
2018-09-26T22:04:15.883Z,14.50
2018-09-26T22:06:43.374Z,14.50
2018-09-26T22:09:10.878Z,14.50
2018-09-26T22:11:38.518Z,14.60
2018-09-26T22:14:06.046Z,14.70
2018-09-26T22:16:33.589Z,14.90
2018-09-26T22:19:01.112Z,15.00
2018-09-26T22:21:28.844Z,15.00
2018-09-26T22:23:56.521Z,15.00
2018-09-26T22:26:24.023Z,14.90
2018-09-26T22:28:51.620Z,15.00
2018-09-26T22:31:19.155Z,15.00
2018-09-26T22:33:46.686Z,14.90
2018-09-26T22:36:14.174Z,14.90
2018-09-26T22:38:41.649Z,15.00
2018-09-26T22:41:09.183Z,15.00
2018-09-26T22:43:36.706Z,15.00
2018-09-26T22:46:04.209Z,14.90
2018-09-26T22:48:32.010Z,15.10
2018-09-26T22:50:59.534Z,15.20
2018-09-26T22:53:27.095Z,15.20
2018-09-26T22:55:54.630Z,15.20
2018-09-26T22:58:22.118Z,15.20
2018-09-26T23:00:49.648Z,15.30
2018-09-26T23:03:17.138Z,15.30
2018-09-26T23:05:44.641Z,15.20
2018-09-26T23:08:12.150Z,15.20
2018-09-26T23:10:39.634Z,15.30
2018-09-26T23:13:07.322Z,15.30
2018-09-26T23:15:34.943Z,15.10
2018-09-26T23:18:02.472Z,14.90
2018-09-26T23:20:29.996Z,14.90
2018-09-26T23:22:57.552Z,14.70
2018-09-26T23:25:25.086Z,14.70
2018-09-26T23:27:52.591Z,14.50
2018-09-26T23:30:20.487Z,14.30
2018-09-26T23:32:48.006Z,14.30
2018-09-26T23:35:15.536Z,14.20
2018-09-26T23:37:43.037Z,14.10
2018-09-26T23:40:10.433Z,13.80
2018-09-26T23:42:38.036Z,13.90
2018-09-26T23:45:05.654Z,13.70
2018-09-26T23:47:33.285Z,13.60
2018-09-26T23:50:00.821Z,13.60
2018-09-26T23:52:28.393Z,13.60
2018-09-26T23:54:55.995Z,13.50
2018-09-26T23:57:24.175Z,13.50
2018-09-26T23:59:51.719Z,13.40
